Decoded Metar for VMMC (MACAU in MACAU) (IATA:MFM) | Meteo·Mobile Aviation Weather
aviador You're here:

VMMC Decoded Metar

MACAU in MACAU
Report Time2018-08-21 07:30:00
UTC Time2018-08-21 07:51:08
Flight Rules ifr IFR
Wind180° at 05 kt
W.Decomp.*RWY 16: 4.7 kt HW 1.8 kt RCW
W.Rank180° ranks 14
Current wind is below 180° avg. (7.3)
Visibility4800 m
Phenomena:Haze
Clouds:Few 020 Hf
Scattered 030 Hf
Expected CloudBase > 2,000 ft AGL from Temp-Dew spread
CeilingNone
Temp31°C (ISA +16)
Dew Point26°C (75% RH)
Heat Index39.2°C
QNH0997 hPa
Density Alt2,835 ft
Elevation20 ft
Report Wrong Elevation
Raw Report
VMMC 210730Z 18005KT 4800 HZ FEW020 SCT030 31/26 Q0997 NOSIG=

Extra information for VMMC:More info

Metar Taf Metar & Taf Last 4 Metars F.Rules Stats Wind Profile Meteogram Temp Stats Airport Information Weather charts Add Link Nearby VenuesMetar ALERT Operation Metar Decoded Social comments